sensor_id;sensor_type;location;lat;lon;timestamp;P1;durP1;ratioP1;P2;durP2;ratioP2
3465;SDS011;1747;48.884;9.160;2022-07-15T00:01:00;6.47;;;2.60;;
3465;SDS011;1747;48.884;9.160;2022-07-15T00:03:27;6.47;;;2.53;;
3465;SDS011;1747;48.884;9.160;2022-07-15T00:05:56;6.68;;;2.90;;
3465;SDS011;1747;48.884;9.160;2022-07-15T00:08:22;5.88;;;2.63;;
3465;SDS011;1747;48.884;9.160;2022-07-15T00:10:49;5.00;;;2.53;;
3465;SDS011;1747;48.884;9.160;2022-07-15T00:13:16;4.65;;;2.42;;
3465;SDS011;1747;48.884;9.160;2022-07-15T00:15:43;4.50;;;2.60;;
3465;SDS011;1747;48.884;9.160;2022-07-15T00:18:10;5.40;;;2.70;;
3465;SDS011;1747;48.884;9.160;2022-07-15T00:20:36;6.80;;;2.67;;
3465;SDS011;1747;48.884;9.160;2022-07-15T00:23:05;2.92;;;2.40;;
3465;SDS011;1747;48.884;9.160;2022-07-15T00:25:32;3.92;;;2.58;;
3465;SDS011;1747;48.884;9.160;2022-07-15T00:28:00;6.47;;;2.85;;
3465;SDS011;1747;48.884;9.160;2022-07-15T00:30:28;3.53;;;2.45;;
3465;SDS011;1747;48.884;9.160;2022-07-15T00:32:56;3.30;;;2.60;;
3465;SDS011;1747;48.884;9.160;2022-07-15T00:35:23;4.53;;;2.75;;
3465;SDS011;1747;48.884;9.160;2022-07-15T00:37:50;7.45;;;2.65;;
3465;SDS011;1747;48.884;9.160;2022-07-15T00:40:18;3.58;;;2.63;;
3465;SDS011;1747;48.884;9.160;2022-07-15T00:42:45;4.85;;;2.40;;
3465;SDS011;1747;48.884;9.160;2022-07-15T00:45:13;5.68;;;2.72;;
3465;SDS011;1747;48.884;9.160;2022-07-15T00:47:42;4.68;;;2.28;;
3465;SDS011;1747;48.884;9.160;2022-07-15T00:50:10;6.72;;;2.92;;
3465;SDS011;1747;48.884;9.160;2022-07-15T00:52:38;5.68;;;2.47;;
3465;SDS011;1747;48.884;9.160;2022-07-15T00:55:07;4.43;;;2.88;;
3465;SDS011;1747;48.884;9.160;2022-07-15T00:57:38;4.05;;;2.63;;
3465;SDS011;1747;48.884;9.160;2022-07-15T01:00:08;4.05;;;2.78;;
3465;SDS011;1747;48.884;9.160;2022-07-15T01:02:37;5.68;;;2.83;;
3465;SDS011;1747;48.884;9.160;2022-07-15T01:05:05;4.22;;;2.70;;
3465;SDS011;1747;48.884;9.160;2022-07-15T01:07:35;7.28;;;2.50;;
3465;SDS011;1747;48.884;9.160;2022-07-15T01:10:03;5.35;;;3.22;;
3465;SDS011;1747;48.884;9.160;2022-07-15T01:12:31;6.32;;;3.00;;
3465;SDS011;1747;48.884;9.160;2022-07-15T01:15:00;5.53;;;2.60;;
3465;SDS011;1747;48.884;9.160;2022-07-15T01:17:27;3.78;;;2.85;;
3465;SDS011;1747;48.884;9.160;2022-07-15T01:19:54;4.40;;;2.65;;
3465;SDS011;1747;48.884;9.160;2022-07-15T01:22:22;4.10;;;2.60;;
3465;SDS011;1747;48.884;9.160;2022-07-15T01:24:49;5.57;;;2.70;;
3465;SDS011;1747;48.884;9.160;2022-07-15T01:27:16;6.80;;;2.90;;
3465;SDS011;1747;48.884;9.160;2022-07-15T01:29:43;3.78;;;2.72;;
3465;SDS011;1747;48.884;9.160;2022-07-15T01:32:10;3.78;;;3.03;;
3465;SDS011;1747;48.884;9.160;2022-07-15T01:34:37;4.40;;;2.80;;
3465;SDS011;1747;48.884;9.160;2022-07-15T01:37:03;4.07;;;2.85;;
3465;SDS011;1747;48.884;9.160;2022-07-15T01:39:32;5.43;;;2.90;;
3465;SDS011;1747;48.884;9.160;2022-07-15T01:41:59;7.10;;;3.13;;
3465;SDS011;1747;48.884;9.160;2022-07-15T01:44:26;7.15;;;2.78;;
3465;SDS011;1747;48.884;9.160;2022-07-15T01:46:52;4.68;;;2.53;;
3465;SDS011;1747;48.884;9.160;2022-07-15T01:49:19;2.80;;;2.40;;
3465;SDS011;1747;48.884;9.160;2022-07-15T01:51:51;3.72;;;2.78;;
3465;SDS011;1747;48.884;9.160;2022-07-15T01:54:19;3.15;;;2.42;;
3465;SDS011;1747;48.884;9.160;2022-07-15T01:56:48;4.45;;;2.53;;
3465;SDS011;1747;48.884;9.160;2022-07-15T01:59:15;6.43;;;2.92;;
3465;SDS011;1747;48.884;9.160;2022-07-15T02:01:42;4.72;;;2.55;;
3465;SDS011;1747;48.884;9.160;2022-07-15T02:04:10;4.10;;;2.40;;
3465;SDS011;1747;48.884;9.160;2022-07-15T02:06:38;3.33;;;2.55;;
3465;SDS011;1747;48.884;9.160;2022-07-15T02:09:05;4.95;;;3.03;;
3465;SDS011;1747;48.884;9.160;2022-07-15T02:11:32;5.47;;;3.08;;
3465;SDS011;1747;48.884;9.160;2022-07-15T02:14:00;4.38;;;2.80;;
3465;SDS011;1747;48.884;9.160;2022-07-15T02:16:28;4.60;;;2.75;;
3465;SDS011;1747;48.884;9.160;2022-07-15T02:18:55;5.22;;;3.00;;
3465;SDS011;1747;48.884;9.160;2022-07-15T02:21:23;6.05;;;3.25;;
3465;SDS011;1747;48.884;9.160;2022-07-15T02:23:51;4.13;;;2.65;;
3465;SDS011;1747;48.884;9.160;2022-07-15T02:26:19;3.53;;;2.30;;
3465;SDS011;1747;48.884;9.160;2022-07-15T02:28:46;3.88;;;2.70;;
3465;SDS011;1747;48.884;9.160;2022-07-15T02:31:14;4.30;;;2.70;;
3465;SDS011;1747;48.884;9.160;2022-07-15T02:33:41;3.22;;;2.65;;
3465;SDS011;1747;48.884;9.160;2022-07-15T02:36:08;5.50;;;3.00;;
3465;SDS011;1747;48.884;9.160;2022-07-15T02:38:36;7.25;;;2.38;;
3465;SDS011;1747;48.884;9.160;2022-07-15T02:41:03;6.13;;;2.53;;
3465;SDS011;1747;48.884;9.160;2022-07-15T02:43:30;4.85;;;2.47;;
3465;SDS011;1747;48.884;9.160;2022-07-15T02:45:57;3.78;;;2.40;;
3465;SDS011;1747;48.884;9.160;2022-07-15T02:48:26;3.15;;;2.17;;
3465;SDS011;1747;48.884;9.160;2022-07-15T02:50:53;3.50;;;2.30;;
3465;SDS011;1747;48.884;9.160;2022-07-15T02:53:19;4.45;;;2.50;;
3465;SDS011;1747;48.884;9.160;2022-07-15T02:55:49;4.40;;;2.75;;
3465;SDS011;1747;48.884;9.160;2022-07-15T02:58:16;3.45;;;2.40;;
3465;SDS011;1747;48.884;9.160;2022-07-15T03:00:42;5.13;;;2.50;;
3465;SDS011;1747;48.884;9.160;2022-07-15T03:03:09;4.13;;;2.60;;
3465;SDS011;1747;48.884;9.160;2022-07-15T03:05:38;3.72;;;2.47;;
3465;SDS011;1747;48.884;9.160;2022-07-15T03:08:05;4.57;;;3.20;;
3465;SDS011;1747;48.884;9.160;2022-07-15T03:10:32;5.30;;;3.53;;
3465;SDS011;1747;48.884;9.160;2022-07-15T03:12:59;6.65;;;3.97;;
3465;SDS011;1747;48.884;9.160;2022-07-15T03:15:26;13.52;;;6.75;;
3465;SDS011;1747;48.884;9.160;2022-07-15T03:17:53;11.63;;;5.78;;
3465;SDS011;1747;48.884;9.160;2022-07-15T03:20:20;17.00;;;5.78;;
3465;SDS011;1747;48.884;9.160;2022-07-15T03:22:48;8.93;;;4.55;;
3465;SDS011;1747;48.884;9.160;2022-07-15T03:25:15;14.27;;;6.55;;
3465;SDS011;1747;48.884;9.160;2022-07-15T03:27:42;23.77;;;9.43;;
3465;SDS011;1747;48.884;9.160;2022-07-15T03:30:09;23.75;;;9.23;;
3465;SDS011;1747;48.884;9.160;2022-07-15T03:32:36;21.67;;;8.75;;
3465;SDS011;1747;48.884;9.160;2022-07-15T03:35:03;18.15;;;5.97;;
3465;SDS011;1747;48.884;9.160;2022-07-15T03:37:30;10.15;;;4.60;;
3465;SDS011;1747;48.884;9.160;2022-07-15T03:39:58;7.32;;;3.72;;
3465;SDS011;1747;48.884;9.160;2022-07-15T03:42:25;9.05;;;4.15;;
3465;SDS011;1747;48.884;9.160;2022-07-15T03:44:52;9.90;;;4.20;;
3465;SDS011;1747;48.884;9.160;2022-07-15T03:47:19;15.80;;;6.40;;
3465;SDS011;1747;48.884;9.160;2022-07-15T03:49:46;19.20;;;7.00;;
3465;SDS011;1747;48.884;9.160;2022-07-15T03:52:12;14.27;;;7.40;;
3465;SDS011;1747;48.884;9.160;2022-07-15T03:54:39;20.88;;;8.85;;
3465;SDS011;1747;48.884;9.160;2022-07-15T03:57:07;22.63;;;9.43;;
3465;SDS011;1747;48.884;9.160;2022-07-15T03:59:34;36.35;;;13.60;;
3465;SDS011;1747;48.884;9.160;2022-07-15T04:02:01;30.45;;;11.90;;
3465;SDS011;1747;48.884;9.160;2022-07-15T04:04:28;20.20;;;8.27;;
3465;SDS011;1747;48.884;9.160;2022-07-15T04:06:55;13.05;;;6.07;;
3465;SDS011;1747;48.884;9.160;2022-07-15T04:09:22;12.02;;;5.55;;
3465;SDS011;1747;48.884;9.160;2022-07-15T04:11:48;8.80;;;4.28;;
3465;SDS011;1747;48.884;9.160;2022-07-15T04:14:17;7.43;;;4.10;;
3465;SDS011;1747;48.884;9.160;2022-07-15T04:16:47;11.15;;;4.55;;
3465;SDS011;1747;48.884;9.160;2022-07-15T04:19:14;8.95;;;4.50;;
3465;SDS011;1747;48.884;9.160;2022-07-15T04:21:40;5.93;;;3.63;;
3465;SDS011;1747;48.884;9.160;2022-07-15T04:24:07;5.45;;;3.20;;
3465;SDS011;1747;48.884;9.160;2022-07-15T04:26:34;5.72;;;3.50;;
3465;SDS011;1747;48.884;9.160;2022-07-15T04:29:01;4.78;;;3.30;;
3465;SDS011;1747;48.884;9.160;2022-07-15T04:31:29;4.13;;;2.88;;
3465;SDS011;1747;48.884;9.160;2022-07-15T04:33:56;7.53;;;3.30;;
3465;SDS011;1747;48.884;9.160;2022-07-15T04:36:23;5.85;;;3.40;;
3465;SDS011;1747;48.884;9.160;2022-07-15T04:38:50;6.60;;;3.55;;
3465;SDS011;1747;48.884;9.160;2022-07-15T04:41:16;6.85;;;3.35;;
3465;SDS011;1747;48.884;9.160;2022-07-15T04:43:43;6.65;;;3.70;;
3465;SDS011;1747;48.884;9.160;2022-07-15T04:46:10;5.45;;;4.20;;
3465;SDS011;1747;48.884;9.160;2022-07-15T04:48:39;7.75;;;3.40;;
3465;SDS011;1747;48.884;9.160;2022-07-15T04:51:23;15.32;;;3.95;;
3465;SDS011;1747;48.884;9.160;2022-07-15T04:53:50;8.02;;;3.33;;
3465;SDS011;1747;48.884;9.160;2022-07-15T04:56:16;4.70;;;3.22;;
3465;SDS011;1747;48.884;9.160;2022-07-15T04:58:43;8.55;;;3.20;;
3465;SDS011;1747;48.884;9.160;2022-07-15T05:01:10;4.57;;;3.25;;
3465;SDS011;1747;48.884;9.160;2022-07-15T05:03:39;6.55;;;3.20;;
3465;SDS011;1747;48.884;9.160;2022-07-15T05:06:06;10.48;;;3.53;;
3465;SDS011;1747;48.884;9.160;2022-07-15T05:08:33;6.80;;;3.60;;
3465;SDS011;1747;48.884;9.160;2022-07-15T05:11:00;5.88;;;3.47;;
3465;SDS011;1747;48.884;9.160;2022-07-15T05:13:27;4.43;;;3.20;;
3465;SDS011;1747;48.884;9.160;2022-07-15T05:15:54;5.28;;;3.10;;
3465;SDS011;1747;48.884;9.160;2022-07-15T05:18:20;6.22;;;3.60;;
3465;SDS011;1747;48.884;9.160;2022-07-15T05:20:49;8.48;;;3.20;;
3465;SDS011;1747;48.884;9.160;2022-07-15T05:23:16;8.48;;;3.53;;
3465;SDS011;1747;48.884;9.160;2022-07-15T05:25:43;6.80;;;3.30;;
3465;SDS011;1747;48.884;9.160;2022-07-15T05:28:10;6.50;;;3.28;;
3465;SDS011;1747;48.884;9.160;2022-07-15T05:30:37;6.65;;;3.63;;
3465;SDS011;1747;48.884;9.160;2022-07-15T05:33:05;8.70;;;3.47;;
3465;SDS011;1747;48.884;9.160;2022-07-15T05:35:32;8.55;;;3.35;;
3465;SDS011;1747;48.884;9.160;2022-07-15T05:38:00;7.80;;;3.30;;
3465;SDS011;1747;48.884;9.160;2022-07-15T05:40:27;7.00;;;3.50;;
3465;SDS011;1747;48.884;9.160;2022-07-15T05:42:54;7.50;;;3.30;;
3465;SDS011;1747;48.884;9.160;2022-07-15T05:45:21;7.30;;;3.05;;
3465;SDS011;1747;48.884;9.160;2022-07-15T05:47:48;8.90;;;3.05;;
3465;SDS011;1747;48.884;9.160;2022-07-15T05:50:15;6.03;;;2.90;;
3465;SDS011;1747;48.884;9.160;2022-07-15T05:52:42;7.60;;;2.70;;
3465;SDS011;1747;48.884;9.160;2022-07-15T05:55:10;8.52;;;2.63;;
3465;SDS011;1747;48.884;9.160;2022-07-15T05:57:38;3.67;;;2.72;;
3465;SDS011;1747;48.884;9.160;2022-07-15T06:00:05;4.20;;;2.30;;
3465;SDS011;1747;48.884;9.160;2022-07-15T06:02:34;5.43;;;2.00;;
3465;SDS011;1747;48.884;9.160;2022-07-15T06:05:01;8.57;;;2.17;;
3465;SDS011;1747;48.884;9.160;2022-07-15T06:07:27;7.53;;;2.20;;
3465;SDS011;1747;48.884;9.160;2022-07-15T06:09:54;4.50;;;2.15;;
3465;SDS011;1747;48.884;9.160;2022-07-15T06:12:23;4.43;;;2.33;;
3465;SDS011;1747;48.884;9.160;2022-07-15T06:14:49;6.68;;;2.30;;
3465;SDS011;1747;48.884;9.160;2022-07-15T06:17:16;3.33;;;2.22;;
3465;SDS011;1747;48.884;9.160;2022-07-15T06:19:43;4.45;;;2.20;;
3465;SDS011;1747;48.884;9.160;2022-07-15T06:22:10;4.30;;;2.05;;
3465;SDS011;1747;48.884;9.160;2022-07-15T06:24:37;5.32;;;2.33;;
3465;SDS011;1747;48.884;9.160;2022-07-15T06:27:04;6.13;;;2.40;;
3465;SDS011;1747;48.884;9.160;2022-07-15T06:29:32;10.10;;;1.98;;
3465;SDS011;1747;48.884;9.160;2022-07-15T06:31:59;5.63;;;2.15;;
3465;SDS011;1747;48.884;9.160;2022-07-15T06:34:26;7.95;;;2.13;;
3465;SDS011;1747;48.884;9.160;2022-07-15T06:36:53;4.03;;;1.90;;
3465;SDS011;1747;48.884;9.160;2022-07-15T06:39:20;10.40;;;2.25;;
3465;SDS011;1747;48.884;9.160;2022-07-15T06:41:47;6.70;;;2.13;;
3465;SDS011;1747;48.884;9.160;2022-07-15T06:44:14;6.03;;;2.50;;
3465;SDS011;1747;48.884;9.160;2022-07-15T06:46:42;7.57;;;1.90;;
3465;SDS011;1747;48.884;9.160;2022-07-15T06:49:10;6.97;;;1.90;;
3465;SDS011;1747;48.884;9.160;2022-07-15T06:51:36;7.63;;;2.28;;
3465;SDS011;1747;48.884;9.160;2022-07-15T06:54:03;2.17;;;1.75;;
3465;SDS011;1747;48.884;9.160;2022-07-15T06:56:31;6.13;;;2.50;;
3465;SDS011;1747;48.884;9.160;2022-07-15T06:58:58;4.13;;;2.15;;
3465;SDS011;1747;48.884;9.160;2022-07-15T07:01:25;8.13;;;1.95;;
3465;SDS011;1747;48.884;9.160;2022-07-15T07:03:53;3.08;;;1.70;;
3465;SDS011;1747;48.884;9.160;2022-07-15T07:06:20;5.55;;;1.65;;
3465;SDS011;1747;48.884;9.160;2022-07-15T07:08:47;10.43;;;1.98;;
3465;SDS011;1747;48.884;9.160;2022-07-15T07:11:15;5.65;;;1.73;;
3465;SDS011;1747;48.884;9.160;2022-07-15T07:13:42;5.85;;;1.83;;
3465;SDS011;1747;48.884;9.160;2022-07-15T07:16:09;5.47;;;1.80;;
3465;SDS011;1747;48.884;9.160;2022-07-15T07:18:36;3.47;;;2.00;;
3465;SDS011;1747;48.884;9.160;2022-07-15T07:38:47;3.88;;;1.60;;
3465;SDS011;1747;48.884;9.160;2022-07-15T07:41:14;7.72;;;1.73;;
3465;SDS011;1747;48.884;9.160;2022-07-15T07:43:41;4.25;;;1.60;;
3465;SDS011;1747;48.884;9.160;2022-07-15T07:46:08;5.20;;;1.80;;
3465;SDS011;1747;48.884;9.160;2022-07-15T07:48:37;8.25;;;1.63;;
3465;SDS011;1747;48.884;9.160;2022-07-15T07:51:04;4.20;;;2.05;;
3465;SDS011;1747;48.884;9.160;2022-07-15T07:53:31;4.88;;;1.98;;
3465;SDS011;1747;48.884;9.160;2022-07-15T07:55:59;2.15;;;1.48;;
3465;SDS011;1747;48.884;9.160;2022-07-15T07:58:26;4.38;;;1.60;;
3465;SDS011;1747;48.884;9.160;2022-07-15T08:00:53;3.10;;;1.80;;
3465;SDS011;1747;48.884;9.160;2022-07-15T08:03:21;2.88;;;1.63;;
3465;SDS011;1747;48.884;9.160;2022-07-15T08:05:48;3.28;;;1.77;;
3465;SDS011;1747;48.884;9.160;2022-07-15T08:08:15;3.83;;;1.58;;
3465;SDS011;1747;48.884;9.160;2022-07-15T08:10:45;4.25;;;1.40;;
3465;SDS011;1747;48.884;9.160;2022-07-15T08:13:15;4.88;;;1.80;;
3465;SDS011;1747;48.884;9.160;2022-07-15T08:15:42;4.47;;;1.80;;
3465;SDS011;1747;48.884;9.160;2022-07-15T08:18:10;3.22;;;1.88;;
3465;SDS011;1747;48.884;9.160;2022-07-15T08:20:37;6.63;;;1.80;;
3465;SDS011;1747;48.884;9.160;2022-07-15T08:23:04;6.45;;;1.90;;
3465;SDS011;1747;48.884;9.160;2022-07-15T08:25:32;6.13;;;1.85;;
3465;SDS011;1747;48.884;9.160;2022-07-15T08:28:01;3.75;;;1.90;;
3465;SDS011;1747;48.884;9.160;2022-07-15T08:30:30;7.30;;;2.00;;
3465;SDS011;1747;48.884;9.160;2022-07-15T08:32:58;5.68;;;1.90;;
3465;SDS011;1747;48.884;9.160;2022-07-15T08:35:26;3.88;;;1.92;;
3465;SDS011;1747;48.884;9.160;2022-07-15T08:37:53;4.03;;;1.60;;
3465;SDS011;1747;48.884;9.160;2022-07-15T08:40:20;6.20;;;1.70;;
3465;SDS011;1747;48.884;9.160;2022-07-15T08:42:49;4.00;;;1.73;;
3465;SDS011;1747;48.884;9.160;2022-07-15T08:45:16;5.10;;;1.60;;
3465;SDS011;1747;48.884;9.160;2022-07-15T08:47:45;4.07;;;1.70;;
3465;SDS011;1747;48.884;9.160;2022-07-15T08:50:14;3.22;;;1.65;;
3465;SDS011;1747;48.884;9.160;2022-07-15T08:52:42;3.22;;;1.83;;
3465;SDS011;1747;48.884;9.160;2022-07-15T08:55:10;6.57;;;1.95;;
3465;SDS011;1747;48.884;9.160;2022-07-15T08:57:38;4.70;;;2.00;;
3465;SDS011;1747;48.884;9.160;2022-07-15T09:00:05;6.05;;;2.00;;
3465;SDS011;1747;48.884;9.160;2022-07-15T09:02:35;6.47;;;1.60;;
3465;SDS011;1747;48.884;9.160;2022-07-15T09:05:17;3.13;;;1.80;;
3465;SDS011;1747;48.884;9.160;2022-07-15T09:07:57;8.55;;;1.92;;
3465;SDS011;1747;48.884;9.160;2022-07-15T09:10:38;4.30;;;1.90;;
3465;SDS011;1747;48.884;9.160;2022-07-15T09:13:09;5.68;;;2.13;;
3465;SDS011;1747;48.884;9.160;2022-07-15T09:15:37;3.78;;;1.83;;
3465;SDS011;1747;48.884;9.160;2022-07-15T09:18:06;4.40;;;1.95;;
3465;SDS011;1747;48.884;9.160;2022-07-15T09:20:37;4.45;;;2.00;;
3465;SDS011;1747;48.884;9.160;2022-07-15T09:23:05;3.72;;;1.58;;
3465;SDS011;1747;48.884;9.160;2022-07-15T09:25:32;5.35;;;1.63;;
3465;SDS011;1747;48.884;9.160;2022-07-15T09:28:01;2.92;;;1.55;;
3465;SDS011;1747;48.884;9.160;2022-07-15T09:30:30;6.50;;;1.90;;
3465;SDS011;1747;48.884;9.160;2022-07-15T09:33:15;3.17;;;1.73;;
3465;SDS011;1747;48.884;9.160;2022-07-15T09:36:05;3.55;;;1.90;;
3465;SDS011;1747;48.884;9.160;2022-07-15T09:38:35;6.93;;;1.65;;
3465;SDS011;1747;48.884;9.160;2022-07-15T09:41:07;5.38;;;2.13;;
3465;SDS011;1747;48.884;9.160;2022-07-15T09:43:45;6.00;;;1.80;;
3465;SDS011;1747;48.884;9.160;2022-07-15T09:46:14;4.65;;;1.80;;
3465;SDS011;1747;48.884;9.160;2022-07-15T09:48:42;4.20;;;1.83;;
3465;SDS011;1747;48.884;9.160;2022-07-15T09:51:11;5.13;;;2.13;;
3465;SDS011;1747;48.884;9.160;2022-07-15T09:53:38;4.88;;;2.10;;
3465;SDS011;1747;48.884;9.160;2022-07-15T09:56:07;8.23;;;1.70;;
3465;SDS011;1747;48.884;9.160;2022-07-15T09:58:36;3.90;;;1.95;;
3465;SDS011;1747;48.884;9.160;2022-07-15T10:01:05;4.03;;;2.10;;
3465;SDS011;1747;48.884;9.160;2022-07-15T10:03:33;4.32;;;2.00;;
3465;SDS011;1747;48.884;9.160;2022-07-15T10:06:00;6.03;;;2.28;;
3465;SDS011;1747;48.884;9.160;2022-07-15T10:08:30;4.53;;;2.20;;
3465;SDS011;1747;48.884;9.160;2022-07-15T10:10:58;3.42;;;2.10;;
3465;SDS011;1747;48.884;9.160;2022-07-15T10:13:31;3.85;;;2.25;;
3465;SDS011;1747;48.884;9.160;2022-07-15T10:16:16;3.33;;;1.88;;
3465;SDS011;1747;48.884;9.160;2022-07-15T10:19:01;6.63;;;2.00;;
3465;SDS011;1747;48.884;9.160;2022-07-15T10:21:35;5.60;;;2.03;;
3465;SDS011;1747;48.884;9.160;2022-07-15T10:24:15;3.50;;;2.20;;
3465;SDS011;1747;48.884;9.160;2022-07-15T10:26:55;3.17;;;1.90;;
3465;SDS011;1747;48.884;9.160;2022-07-15T10:29:31;5.45;;;2.13;;
3465;SDS011;1747;48.884;9.160;2022-07-15T10:31:59;7.43;;;2.90;;
3465;SDS011;1747;48.884;9.160;2022-07-15T10:34:31;3.55;;;2.20;;
3465;SDS011;1747;48.884;9.160;2022-07-15T10:37:03;5.90;;;2.20;;
3465;SDS011;1747;48.884;9.160;2022-07-15T10:42:22;3.05;;;2.00;;
3465;SDS011;1747;48.884;9.160;2022-07-15T10:45:04;8.48;;;2.78;;
3465;SDS011;1747;48.884;9.160;2022-07-15T10:47:34;5.60;;;2.38;;
3465;SDS011;1747;48.884;9.160;2022-07-15T10:53:15;5.97;;;2.40;;
3465;SDS011;1747;48.884;9.160;2022-07-15T10:55:45;4.00;;;2.30;;
3465;SDS011;1747;48.884;9.160;2022-07-15T10:58:12;3.72;;;2.22;;
3465;SDS011;1747;48.884;9.160;2022-07-15T11:00:41;4.72;;;2.05;;
3465;SDS011;1747;48.884;9.160;2022-07-15T11:03:09;5.55;;;2.05;;
3465;SDS011;1747;48.884;9.160;2022-07-15T11:05:41;6.38;;;2.40;;
3465;SDS011;1747;48.884;9.160;2022-07-15T11:08:46;4.53;;;1.90;;
3465;SDS011;1747;48.884;9.160;2022-07-15T11:17:19;4.38;;;2.40;;
3465;SDS011;1747;48.884;9.160;2022-07-15T11:19:52;6.00;;;2.25;;
3465;SDS011;1747;48.884;9.160;2022-07-15T11:22:21;6.25;;;2.47;;
3465;SDS011;1747;48.884;9.160;2022-07-15T11:24:50;4.15;;;2.35;;
3465;SDS011;1747;48.884;9.160;2022-07-15T11:27:19;4.93;;;2.17;;
3465;SDS011;1747;48.884;9.160;2022-07-15T11:29:48;3.78;;;2.30;;
3465;SDS011;1747;48.884;9.160;2022-07-15T11:32:17;4.20;;;2.30;;
3465;SDS011;1747;48.884;9.160;2022-07-15T11:34:46;5.38;;;2.17;;
3465;SDS011;1747;48.884;9.160;2022-07-15T11:37:14;4.30;;;2.40;;
3465;SDS011;1747;48.884;9.160;2022-07-15T11:39:45;5.18;;;2.30;;
3465;SDS011;1747;48.884;9.160;2022-07-15T11:42:22;7.88;;;2.20;;
3465;SDS011;1747;48.884;9.160;2022-07-15T11:45:08;6.20;;;2.25;;
3465;SDS011;1747;48.884;9.160;2022-07-15T11:47:39;5.63;;;1.98;;
3465;SDS011;1747;48.884;9.160;2022-07-15T11:50:18;3.58;;;2.00;;
3465;SDS011;1747;48.884;9.160;2022-07-15T11:52:45;4.60;;;2.30;;
3465;SDS011;1747;48.884;9.160;2022-07-15T11:55:12;9.13;;;2.50;;
3465;SDS011;1747;48.884;9.160;2022-07-15T11:57:43;7.00;;;2.20;;
3465;SDS011;1747;48.884;9.160;2022-07-15T12:00:13;6.07;;;2.28;;
3465;SDS011;1747;48.884;9.160;2022-07-15T12:02:40;3.70;;;2.22;;
3465;SDS011;1747;48.884;9.160;2022-07-15T12:05:08;2.85;;;2.00;;
3465;SDS011;1747;48.884;9.160;2022-07-15T12:07:39;5.28;;;2.42;;
3465;SDS011;1747;48.884;9.160;2022-07-15T12:10:07;2.55;;;1.92;;
3465;SDS011;1747;48.884;9.160;2022-07-15T12:12:40;3.08;;;2.17;;
3465;SDS011;1747;48.884;9.160;2022-07-15T12:15:09;4.47;;;2.47;;
3465;SDS011;1747;48.884;9.160;2022-07-15T12:17:36;2.83;;;2.20;;
3465;SDS011;1747;48.884;9.160;2022-07-15T12:20:06;3.63;;;2.10;;
3465;SDS011;1747;48.884;9.160;2022-07-15T12:22:34;3.30;;;2.05;;
3465;SDS011;1747;48.884;9.160;2022-07-15T12:25:01;3.85;;;2.28;;
3465;SDS011;1747;48.884;9.160;2022-07-15T12:27:31;5.25;;;2.33;;
3465;SDS011;1747;48.884;9.160;2022-07-15T12:30:02;5.32;;;2.33;;
3465;SDS011;1747;48.884;9.160;2022-07-15T12:32:30;4.07;;;2.00;;
3465;SDS011;1747;48.884;9.160;2022-07-15T12:34:57;3.17;;;2.00;;
3465;SDS011;1747;48.884;9.160;2022-07-15T12:37:26;5.60;;;2.38;;
3465;SDS011;1747;48.884;9.160;2022-07-15T12:39:55;3.20;;;2.15;;
3465;SDS011;1747;48.884;9.160;2022-07-15T12:42:23;5.60;;;2.30;;
3465;SDS011;1747;48.884;9.160;2022-07-15T12:45:09;5.68;;;2.58;;
3465;SDS011;1747;48.884;9.160;2022-07-15T12:47:37;3.95;;;2.00;;
3465;SDS011;1747;48.884;9.160;2022-07-15T12:50:26;4.78;;;2.35;;
3465;SDS011;1747;48.884;9.160;2022-07-15T12:52:53;4.80;;;2.13;;
3465;SDS011;1747;48.884;9.160;2022-07-15T12:55:21;3.67;;;2.20;;
3465;SDS011;1747;48.884;9.160;2022-07-15T12:57:49;4.55;;;2.20;;
3465;SDS011;1747;48.884;9.160;2022-07-15T13:00:19;4.97;;;2.38;;
3465;SDS011;1747;48.884;9.160;2022-07-15T13:02:54;3.13;;;2.33;;
3465;SDS011;1747;48.884;9.160;2022-07-15T13:05:23;4.57;;;2.38;;
3465;SDS011;1747;48.884;9.160;2022-07-15T13:07:51;4.70;;;2.30;;
3465;SDS011;1747;48.884;9.160;2022-07-15T13:10:17;5.63;;;2.10;;
3465;SDS011;1747;48.884;9.160;2022-07-15T13:12:44;4.18;;;2.30;;
3465;SDS011;1747;48.884;9.160;2022-07-15T13:15:12;4.13;;;2.40;;
3465;SDS011;1747;48.884;9.160;2022-07-15T13:17:41;3.22;;;2.20;;
3465;SDS011;1747;48.884;9.160;2022-07-15T13:20:08;2.60;;;2.10;;
3465;SDS011;1747;48.884;9.160;2022-07-15T13:22:37;5.75;;;2.50;;
3465;SDS011;1747;48.884;9.160;2022-07-15T13:25:04;4.20;;;2.20;;
3465;SDS011;1747;48.884;9.160;2022-07-15T13:27:32;5.90;;;2.38;;
3465;SDS011;1747;48.884;9.160;2022-07-15T13:29:59;3.78;;;2.00;;
3465;SDS011;1747;48.884;9.160;2022-07-15T13:32:25;5.45;;;2.10;;
3465;SDS011;1747;48.884;9.160;2022-07-15T13:34:54;5.63;;;2.28;;
3465;SDS011;1747;48.884;9.160;2022-07-15T13:37:20;3.63;;;2.25;;
3465;SDS011;1747;48.884;9.160;2022-07-15T13:39:47;3.75;;;2.17;;
3465;SDS011;1747;48.884;9.160;2022-07-15T13:42:14;6.03;;;2.50;;
3465;SDS011;1747;48.884;9.160;2022-07-15T13:44:41;6.80;;;2.13;;
3465;SDS011;1747;48.884;9.160;2022-07-15T13:47:08;3.88;;;2.13;;
3465;SDS011;1747;48.884;9.160;2022-07-15T13:49:35;5.53;;;2.13;;
3465;SDS011;1747;48.884;9.160;2022-07-15T13:52:20;4.07;;;2.40;;
3465;SDS011;1747;48.884;9.160;2022-07-15T15:50:35;5.50;;;2.20;;
3465;SDS011;1747;48.884;9.160;2022-07-15T15:53:02;5.53;;;2.30;;
3465;SDS011;1747;48.884;9.160;2022-07-15T15:55:29;7.80;;;2.38;;
3465;SDS011;1747;48.884;9.160;2022-07-15T15:57:56;7.03;;;2.83;;
3465;SDS011;1747;48.884;9.160;2022-07-15T16:00:23;5.57;;;2.30;;
3465;SDS011;1747;48.884;9.160;2022-07-15T16:02:50;3.72;;;2.17;;
3465;SDS011;1747;48.884;9.160;2022-07-15T16:05:17;6.40;;;2.58;;
3465;SDS011;1747;48.884;9.160;2022-07-15T16:07:45;3.05;;;2.30;;
3465;SDS011;1747;48.884;9.160;2022-07-15T16:10:12;4.97;;;2.25;;
3465;SDS011;1747;48.884;9.160;2022-07-15T16:12:39;4.97;;;2.25;;
3465;SDS011;1747;48.884;9.160;2022-07-15T16:15:07;4.88;;;2.58;;
3465;SDS011;1747;48.884;9.160;2022-07-15T16:17:35;7.35;;;2.10;;
3465;SDS011;1747;48.884;9.160;2022-07-15T16:20:02;6.40;;;2.15;;
3465;SDS011;1747;48.884;9.160;2022-07-15T16:22:31;3.85;;;2.10;;
3465;SDS011;1747;48.884;9.160;2022-07-15T16:25:24;6.65;;;2.20;;
3465;SDS011;1747;48.884;9.160;2022-07-15T16:27:53;2.22;;;2.03;;
3465;SDS011;1747;48.884;9.160;2022-07-15T16:30:20;3.67;;;2.33;;
3465;SDS011;1747;48.884;9.160;2022-07-15T16:32:48;5.30;;;2.55;;
3465;SDS011;1747;48.884;9.160;2022-07-15T16:35:15;5.93;;;2.75;;
3465;SDS011;1747;48.884;9.160;2022-07-15T16:37:42;3.92;;;2.10;;
3465;SDS011;1747;48.884;9.160;2022-07-15T16:40:09;3.90;;;1.85;;
3465;SDS011;1747;48.884;9.160;2022-07-15T16:42:38;2.60;;;2.15;;
3465;SDS011;1747;48.884;9.160;2022-07-15T16:45:05;5.03;;;2.20;;
3465;SDS011;1747;48.884;9.160;2022-07-15T16:47:33;8.25;;;2.33;;
3465;SDS011;1747;48.884;9.160;2022-07-15T16:50:00;5.05;;;2.38;;
3465;SDS011;1747;48.884;9.160;2022-07-15T16:52:26;7.80;;;2.22;;
3465;SDS011;1747;48.884;9.160;2022-07-15T16:54:53;4.78;;;3.13;;
3465;SDS011;1747;48.884;9.160;2022-07-15T16:57:20;4.80;;;2.25;;
3465;SDS011;1747;48.884;9.160;2022-07-15T16:59:48;4.90;;;2.40;;
3465;SDS011;1747;48.884;9.160;2022-07-15T17:02:16;2.40;;;2.13;;
3465;SDS011;1747;48.884;9.160;2022-07-15T17:04:43;4.30;;;2.30;;
3465;SDS011;1747;48.884;9.160;2022-07-15T17:07:10;2.55;;;2.22;;
3465;SDS011;1747;48.884;9.160;2022-07-15T17:09:38;4.00;;;2.30;;
3465;SDS011;1747;48.884;9.160;2022-07-15T17:12:05;3.72;;;2.20;;
3465;SDS011;1747;48.884;9.160;2022-07-15T17:14:33;10.65;;;2.50;;
3465;SDS011;1747;48.884;9.160;2022-07-15T17:17:02;5.35;;;2.35;;
3465;SDS011;1747;48.884;9.160;2022-07-15T17:19:29;4.22;;;2.05;;
3465;SDS011;1747;48.884;9.160;2022-07-15T17:21:56;12.48;;;2.47;;
3465;SDS011;1747;48.884;9.160;2022-07-15T17:24:23;9.27;;;2.20;;
3465;SDS011;1747;48.884;9.160;2022-07-15T17:26:50;6.70;;;2.22;;
3465;SDS011;1747;48.884;9.160;2022-07-15T17:29:17;4.55;;;2.20;;
3465;SDS011;1747;48.884;9.160;2022-07-15T17:31:44;2.50;;;2.20;;
3465;SDS011;1747;48.884;9.160;2022-07-15T17:34:12;3.20;;;2.17;;
3465;SDS011;1747;48.884;9.160;2022-07-15T17:36:39;2.85;;;2.20;;
3465;SDS011;1747;48.884;9.160;2022-07-15T17:39:06;7.03;;;2.15;;
3465;SDS011;1747;48.884;9.160;2022-07-15T17:41:33;5.13;;;2.22;;
3465;SDS011;1747;48.884;9.160;2022-07-15T17:44:00;6.60;;;2.70;;
3465;SDS011;1747;48.884;9.160;2022-07-15T17:46:27;3.88;;;2.70;;
3465;SDS011;1747;48.884;9.160;2022-07-15T17:48:54;4.28;;;2.38;;